createdAt,value
2019-01-16T00:00:24.787Z,8.90
2019-01-16T00:03:13.108Z,9.15
2019-01-16T00:06:11.710Z,9.05
2019-01-16T00:09:13.264Z,8.88
2019-01-16T00:12:03.870Z,9.83
2019-01-16T00:14:51.015Z,10.85
2019-01-16T00:17:49.435Z,9.15
2019-01-16T00:20:54.316Z,9.30
2019-01-16T00:23:50.016Z,9.65
2019-01-16T00:26:48.360Z,9.55
2019-01-16T00:29:36.797Z,8.58
2019-01-16T00:32:15.567Z,9.30
2019-01-16T00:35:14.235Z,9.05
2019-01-16T00:37:58.449Z,9.15
2019-01-16T00:40:53.756Z,9.60
2019-01-16T00:44:01.667Z,9.20
2019-01-16T00:46:54.153Z,9.15
2019-01-16T00:49:35.461Z,8.63
2019-01-16T00:52:19.291Z,8.28
2019-01-16T00:55:21.202Z,8.65
2019-01-16T00:58:22.581Z,8.78
2019-01-16T01:01:10.967Z,7.47
2019-01-16T01:04:08.331Z,7.33
2019-01-16T01:06:57.833Z,8.60
2019-01-16T01:09:58.733Z,7.10
2019-01-16T01:12:47.513Z,6.87
2019-01-16T01:15:40.465Z,6.80
2019-01-16T01:18:32.405Z,7.22
2019-01-16T01:21:20.060Z,7.10
2019-01-16T01:24:14.668Z,6.90
2019-01-16T01:27:07.201Z,6.53
2019-01-16T01:29:54.332Z,7.47
2019-01-16T01:32:46.496Z,7.40
2019-01-16T01:35:38.826Z,7.28
2019-01-16T01:38:40.095Z,7.35
2019-01-16T01:41:35.902Z,7.53
2019-01-16T01:44:25.522Z,8.30
2019-01-16T01:47:24.279Z,8.13
2019-01-16T01:50:22.773Z,8.25
2019-01-16T01:53:12.191Z,9.00
2019-01-16T01:56:04.682Z,8.03
2019-01-16T01:59:00.018Z,8.30
2019-01-16T02:01:43.130Z,8.70
2019-01-16T02:04:35.724Z,9.58
2019-01-16T02:07:24.313Z,8.53
2019-01-16T02:10:08.064Z,10.00
2019-01-16T02:12:57.452Z,9.68
2019-01-16T02:15:56.050Z,9.15
2019-01-16T02:18:47.498Z,9.78
2019-01-16T02:21:41.716Z,11.12
2019-01-16T02:24:37.385Z,10.63
2019-01-16T02:27:35.902Z,9.87
2019-01-16T02:30:28.948Z,11.10
2019-01-16T02:33:17.327Z,10.03
2019-01-16T02:36:15.993Z,11.30
2019-01-16T02:39:04.109Z,10.00
2019-01-16T02:41:52.463Z,11.00
2019-01-16T02:44:54.041Z,10.45
2019-01-16T02:47:46.252Z,10.72
2019-01-16T02:50:38.552Z,10.40
2019-01-16T02:53:30.910Z,12.18
2019-01-16T02:56:18.431Z,10.60
2019-01-16T02:59:20.028Z,10.38
2019-01-16T03:02:08.357Z,12.50
2019-01-16T03:04:50.487Z,11.73
2019-01-16T03:07:35.004Z,11.85
2019-01-16T03:10:18.067Z,10.20
2019-01-16T03:13:16.478Z,12.65
2019-01-16T03:16:15.133Z,11.20
2019-01-16T03:19:04.938Z,11.63
2019-01-16T03:22:00.618Z,10.70
2019-01-16T03:24:58.866Z,11.25
2019-01-16T03:27:39.716Z,11.90
2019-01-16T05:03:48.375Z,10.40
2019-01-16T05:06:36.415Z,9.68
2019-01-16T05:09:20.987Z,11.15
2019-01-16T05:12:09.287Z,10.05
2019-01-16T05:14:57.903Z,11.03
2019-01-16T05:17:46.346Z,10.83
2019-01-16T05:20:48.300Z,10.40
2019-01-16T05:23:40.906Z,10.05
2019-01-16T05:26:27.791Z,10.20
2019-01-16T05:29:26.961Z,11.20
2019-01-16T05:32:16.875Z,11.38
2019-01-16T05:35:04.937Z,10.70
2019-01-16T05:38:03.510Z,11.25
2019-01-16T05:41:05.232Z,10.70
2019-01-16T05:43:57.438Z,11.35
2019-01-16T05:46:59.116Z,10.80
2019-01-16T05:49:49.218Z,10.48
2019-01-16T05:52:37.428Z,10.90
2019-01-16T05:55:25.970Z,10.93
2019-01-16T05:58:14.287Z,11.05
2019-01-16T06:01:02.315Z,11.68
2019-01-16T06:03:55.756Z,12.15
2019-01-16T06:06:44.042Z,11.68
2019-01-16T06:09:42.891Z,12.37
2019-01-16T06:12:36.448Z,11.68
2019-01-16T06:15:22.563Z,10.90
2019-01-16T06:18:10.930Z,11.63
2019-01-16T06:21:15.600Z,11.57
2019-01-16T06:24:05.087Z,11.45
2019-01-16T06:26:53.067Z,12.15
2019-01-16T06:29:45.464Z,12.05
2019-01-16T06:32:50.224Z,12.93
2019-01-16T06:35:38.247Z,12.93
2019-01-16T06:38:27.723Z,12.00
2019-01-16T06:41:10.926Z,11.85
2019-01-16T06:43:49.439Z,12.73
2019-01-16T06:46:41.648Z,13.03
2019-01-16T06:49:29.964Z,13.55
2019-01-16T06:52:19.570Z,12.82
2019-01-16T06:55:13.973Z,15.10
2019-01-16T06:58:02.431Z,13.58
2019-01-16T07:01:00.970Z,12.90
2019-01-16T07:03:49.116Z,12.70
2019-01-16T07:06:37.337Z,13.35
2019-01-16T07:09:21.765Z,13.80
2019-01-16T07:12:14.042Z,14.98
2019-01-16T07:15:02.401Z,14.30
2019-01-16T07:17:45.912Z,15.85
2019-01-16T07:20:41.481Z,15.88
2019-01-16T07:23:33.755Z,14.73
2019-01-16T07:26:25.051Z,14.70
2019-01-16T07:29:11.837Z,16.75
2019-01-16T07:32:04.236Z,15.10
2019-01-16T07:34:51.323Z,17.00
2019-01-16T07:37:47.703Z,15.65
2019-01-16T07:40:49.174Z,16.25
2019-01-16T07:43:33.807Z,16.40
2019-01-16T07:46:38.646Z,17.05
2019-01-16T07:49:26.874Z,16.40
2019-01-16T07:52:11.926Z,17.20
2019-01-16T07:55:10.725Z,15.53
2019-01-16T07:58:12.239Z,15.50
2019-01-16T08:01:01.819Z,15.83
2019-01-16T08:03:54.295Z,17.05
2019-01-16T08:06:42.463Z,16.82
2019-01-16T08:09:25.662Z,17.25
2019-01-16T08:12:15.690Z,15.68
2019-01-16T08:15:08.421Z,15.85
2019-01-16T08:17:49.891Z,15.73
2019-01-16T08:20:38.123Z,15.15
2019-01-16T08:23:26.675Z,15.30
2019-01-16T08:26:13.671Z,15.13
2019-01-16T08:29:09.191Z,12.90
2019-01-16T08:31:58.630Z,14.95
2019-01-16T08:35:06.570Z,14.10
2019-01-16T08:38:02.257Z,14.30
2019-01-16T08:41:01.950Z,13.43
2019-01-16T08:43:51.499Z,13.33
2019-01-16T08:46:34.952Z,13.32
2019-01-16T08:49:23.133Z,12.90
2019-01-16T08:52:22.812Z,12.50
2019-01-16T08:55:24.220Z,12.75
2019-01-16T08:58:12.190Z,12.23
2019-01-16T09:01:10.563Z,11.47
2019-01-16T09:04:06.095Z,12.20
2019-01-16T09:06:54.420Z,11.38
2019-01-16T09:09:34.066Z,11.70
2019-01-16T09:12:22.403Z,10.78
2019-01-16T09:15:11.244Z,10.90
2019-01-16T09:18:01.349Z,10.00
2019-01-16T09:21:09.319Z,11.30
2019-01-16T09:23:58.875Z,10.08
2019-01-16T09:26:50.860Z,10.10
2019-01-16T09:29:43.198Z,10.38
2019-01-16T10:20:14.853Z,8.78
2019-01-16T10:23:01.749Z,9.17
2019-01-16T10:25:49.981Z,8.93
2019-01-16T10:28:38.419Z,8.17
2019-01-16T10:31:23.583Z,8.50
2019-01-16T10:34:12.012Z,8.80
2019-01-16T10:37:00.514Z,7.90
2019-01-16T10:39:48.529Z,8.65
2019-01-16T10:42:35.223Z,8.63
2019-01-16T10:45:33.291Z,8.05
2019-01-16T10:48:28.428Z,8.45
2019-01-16T10:51:17.853Z,9.20
2019-01-16T10:54:06.844Z,9.23
2019-01-16T10:56:59.289Z,9.85
2019-01-16T10:59:43.526Z,8.63
2019-01-16T11:02:31.823Z,9.60
2019-01-16T11:05:27.863Z,9.30
2019-01-16T11:08:08.137Z,9.30
2019-01-16T11:10:51.613Z,9.38
2019-01-16T11:13:41.163Z,9.23
2019-01-16T11:16:46.825Z,8.68
2019-01-16T11:19:34.834Z,9.88
2019-01-16T11:22:30.647Z,9.65
2019-01-16T11:25:20.075Z,9.30
2019-01-16T11:28:15.542Z,9.33
2019-01-16T11:30:59.595Z,8.85
2019-01-16T11:33:47.841Z,9.65
2019-01-16T11:36:49.641Z,9.15
2019-01-16T11:39:31.834Z,8.88
2019-01-16T11:42:20.355Z,9.45
2019-01-16T11:45:25.127Z,9.30
2019-01-16T11:48:17.611Z,9.80
2019-01-16T11:51:22.433Z,10.75
2019-01-16T11:54:10.360Z,10.00
2019-01-16T11:56:57.145Z,9.80
2019-01-16T11:59:52.563Z,11.57
2019-01-16T12:02:54.294Z,11.05
2019-01-16T12:05:46.558Z,12.15
2019-01-16T12:08:27.823Z,10.80
2019-01-16T12:11:23.734Z,10.58
2019-01-16T12:14:05.954Z,10.30
2019-01-16T12:16:55.352Z,13.30
2019-01-16T12:19:44.827Z,11.70
2019-01-16T12:22:33.206Z,10.95
2019-01-16T12:25:12.380Z,13.32
2019-01-16T12:28:07.910Z,11.80
2019-01-16T12:30:50.928Z,11.57
2019-01-16T12:33:38.391Z,10.58
2019-01-16T12:36:23.439Z,11.10
2019-01-16T12:39:11.458Z,10.40
2019-01-16T12:42:04.164Z,10.80
2019-01-16T12:44:52.376Z,10.70
2019-01-16T12:47:40.920Z,10.10
2019-01-16T12:50:19.281Z,10.80
2019-01-16T12:53:23.907Z,9.98
2019-01-16T12:56:28.555Z,10.68
2019-01-16T12:59:16.923Z,10.50
2019-01-16T13:02:05.237Z,9.78
2019-01-16T13:04:54.305Z,9.70
2019-01-16T13:07:42.428Z,9.60
2019-01-16T13:10:41.510Z,8.60
2019-01-16T13:13:30.893Z,9.53
2019-01-16T13:16:24.075Z,8.23
2019-01-16T13:19:04.711Z,8.18
2019-01-16T13:21:52.371Z,8.03
2019-01-16T13:24:44.262Z,8.60
2019-01-16T13:27:25.489Z,8.45
2019-01-16T13:30:30.138Z,8.50
2019-01-16T13:33:18.328Z,9.03
2019-01-16T13:36:06.479Z,9.53
2019-01-16T13:38:53.732Z,10.85
2019-01-16T13:41:32.631Z,9.90
2019-01-16T13:44:21.019Z,10.98
2019-01-16T13:47:13.545Z,11.93
2019-01-16T13:50:15.370Z,11.15
2019-01-16T13:53:19.913Z,11.93
2019-01-16T13:56:09.302Z,12.25
2019-01-16T13:58:58.747Z,11.60
2019-01-16T14:01:39.354Z,11.20
2019-01-16T14:04:31.914Z,11.83
2019-01-16T14:07:21.382Z,11.45
2019-01-16T14:10:09.442Z,11.48
2019-01-16T14:12:58.828Z,11.95
2019-01-16T14:15:48.607Z,11.75
2019-01-16T14:18:40.951Z,12.25
2019-01-16T14:21:53.026Z,13.05
2019-01-16T14:28:40.721Z,11.63
2019-01-16T14:31:33.105Z,10.70
2019-01-16T14:34:20.919Z,11.38
2019-01-16T14:37:28.871Z,10.93
2019-01-16T14:40:16.980Z,10.23
2019-01-16T14:43:01.974Z,11.22
2019-01-16T14:45:50.528Z,10.78
2019-01-16T14:48:58.573Z,11.93
2019-01-16T14:51:50.700Z,10.53
2019-01-16T14:54:38.911Z,10.80
2019-01-16T14:57:40.535Z,11.53
2019-01-16T15:00:32.635Z,11.20
2019-01-16T15:03:23.846Z,12.00
2019-01-16T15:06:04.530Z,12.93
2019-01-16T15:09:12.278Z,12.00
2019-01-16T15:12:00.464Z,14.15
2019-01-16T15:15:04.743Z,14.33
2019-01-16T15:17:43.624Z,14.50
2019-01-16T15:20:31.336Z,14.58
2019-01-16T15:23:19.593Z,14.10
2019-01-16T15:26:00.048Z,13.60
2019-01-16T15:28:49.724Z,13.68
2019-01-16T15:42:33.345Z,11.18
2019-01-16T15:48:46.874Z,10.48
2019-01-16T15:51:35.888Z,10.63
2019-01-16T15:54:29.108Z,10.50
2019-01-16T15:57:21.751Z,10.03
2019-01-16T16:00:20.619Z,10.08
2019-01-16T16:03:10.361Z,10.35
2019-01-16T16:06:06.005Z,9.70
2019-01-16T16:09:04.888Z,9.83
2019-01-16T16:11:53.689Z,9.98
2019-01-16T16:14:43.668Z,10.38
2019-01-16T16:17:50.321Z,11.10
2019-01-16T16:20:44.722Z,10.15
2019-01-16T16:27:08.415Z,10.20
2019-01-16T16:31:20.723Z,11.75
2019-01-16T16:34:11.782Z,11.03
2019-01-16T16:37:19.422Z,11.48
2019-01-16T16:40:03.520Z,11.12
2019-01-16T16:43:06.321Z,10.10
2019-01-16T16:45:55.048Z,10.50
2019-01-16T16:48:43.253Z,10.10
2019-01-16T16:51:31.745Z,10.63
2019-01-16T16:54:39.678Z,11.35
2019-01-16T16:57:25.132Z,11.38
2019-01-16T17:00:04.712Z,10.58
2019-01-16T17:03:00.276Z,10.10
2019-01-16T17:05:55.571Z,10.53
2019-01-16T17:08:43.955Z,9.63
2019-01-16T17:11:32.311Z,11.12
2019-01-16T17:14:24.026Z,11.40
2019-01-16T17:17:23.206Z,11.80
2019-01-16T17:20:11.977Z,11.65
2019-01-16T17:23:11.121Z,11.18
2019-01-16T17:26:00.646Z,12.63
2019-01-16T17:28:50.928Z,12.23
2019-01-16T17:31:42.275Z,12.70
2019-01-16T17:34:26.101Z,11.43
2019-01-16T17:37:28.852Z,13.28
2019-01-16T17:44:03.297Z,12.43
2019-01-16T17:46:56.966Z,13.53
2019-01-16T17:49:49.579Z,14.80
2019-01-16T17:53:04.950Z,13.72
2019-01-16T17:55:53.391Z,15.32
2019-01-16T17:58:49.135Z,15.10
2019-01-16T18:01:45.319Z,17.00
2019-01-16T18:05:02.432Z,17.05
2019-01-16T18:07:52.129Z,17.80
2019-01-16T18:10:44.209Z,18.70
2019-01-16T18:13:33.131Z,18.73
2019-01-16T18:16:25.872Z,19.50
2019-01-16T18:19:31.689Z,18.20
2019-01-16T18:22:21.312Z,18.77
2019-01-16T18:25:26.114Z,18.65
2019-01-16T18:28:12.836Z,17.42
2019-01-16T18:31:00.958Z,17.70
2019-01-16T18:33:51.161Z,19.63
2019-01-16T18:36:39.863Z,18.60
2019-01-16T18:39:29.859Z,19.92
2019-01-16T18:42:25.308Z,18.77
2019-01-16T18:45:13.514Z,19.90
2019-01-16T18:47:52.648Z,18.70
2019-01-16T18:50:41.402Z,18.48
2019-01-16T18:53:29.445Z,18.67
2019-01-16T18:56:18.848Z,17.70
2019-01-16T18:59:01.835Z,19.23
2019-01-16T19:01:51.273Z,18.12
2019-01-16T19:04:41.944Z,17.92
2019-01-16T19:07:43.014Z,16.20
2019-01-16T19:10:23.736Z,15.60
2019-01-16T19:13:11.769Z,14.43
2019-01-16T19:16:01.961Z,15.50
2019-01-16T19:19:06.920Z,14.63
2019-01-16T19:22:05.433Z,15.57
2019-01-16T19:25:10.225Z,15.50
2019-01-16T19:27:55.246Z,14.78
2019-01-16T19:30:34.009Z,13.32
2019-01-16T19:33:17.847Z,13.00
2019-01-16T19:36:02.355Z,13.98
2019-01-16T19:38:47.278Z,14.53
2019-01-16T19:41:28.485Z,13.83
2019-01-16T19:44:16.471Z,13.93
2019-01-16T19:46:57.740Z,13.37
2019-01-16T19:49:38.437Z,13.58
2019-01-16T19:52:20.086Z,14.63
2019-01-16T19:55:09.532Z,14.73
2019-01-16T19:57:57.609Z,15.43
2019-01-16T20:00:50.085Z,15.28
2019-01-16T20:03:48.857Z,15.25
2019-01-16T20:06:40.023Z,16.73
2019-01-16T20:09:28.727Z,14.93
2019-01-16T20:12:21.195Z,15.63
2019-01-16T20:15:09.252Z,16.10
2019-01-16T20:17:57.353Z,15.72
2019-01-16T20:20:45.419Z,16.40
2019-01-16T20:23:26.386Z,15.43
2019-01-16T20:26:27.314Z,16.42
2019-01-16T20:29:15.735Z,16.42
2019-01-16T20:32:08.953Z,18.02
2019-01-16T20:34:53.479Z,17.45
2019-01-16T20:37:46.003Z,17.62
2019-01-16T20:40:38.713Z,17.07
2019-01-16T20:43:27.014Z,16.57
2019-01-16T20:46:17.648Z,17.60
2019-01-16T20:49:19.516Z,18.57
2019-01-16T20:52:10.528Z,16.50
2019-01-16T20:54:59.989Z,17.40
2019-01-16T20:57:55.414Z,16.65
2019-01-16T21:00:44.011Z,17.20
2019-01-16T21:03:32.151Z,17.55
2019-01-16T21:06:30.996Z,17.60
2019-01-16T21:09:15.093Z,17.50
2019-01-16T21:12:04.640Z,18.07
2019-01-16T21:14:57.258Z,17.82
2019-01-16T21:17:53.766Z,19.23
2019-01-16T21:20:51.547Z,18.65
2019-01-16T21:23:38.717Z,17.30
2019-01-16T21:26:28.246Z,18.30
2019-01-16T21:29:21.166Z,17.37
2019-01-16T21:32:10.521Z,17.02
2019-01-16T21:34:58.514Z,17.15
2019-01-16T21:37:50.659Z,16.82
2019-01-16T21:40:38.882Z,16.42
2019-01-16T21:43:26.946Z,17.17
2019-01-16T21:46:16.323Z,17.60
2019-01-16T21:49:23.936Z,16.42
2019-01-16T21:52:16.029Z,16.57
2019-01-16T21:55:05.057Z,16.87
2019-01-16T21:57:57.697Z,17.20
2019-01-16T22:00:47.144Z,16.90
2019-01-16T22:03:35.445Z,17.60
2019-01-16T22:06:24.324Z,16.77
2019-01-16T22:09:15.351Z,16.27
2019-01-16T22:12:03.635Z,15.98
2019-01-16T22:15:11.543Z,16.73
2019-01-16T22:18:00.170Z,17.50
2019-01-16T22:20:49.655Z,16.05
2019-01-16T22:23:42.088Z,17.30
2019-01-16T22:26:30.391Z,15.80
2019-01-16T22:29:17.353Z,15.90
2019-01-16T22:31:59.874Z,15.68
2019-01-16T22:35:01.635Z,16.20
2019-01-16T22:37:51.634Z,15.45
2019-01-16T22:40:38.717Z,17.30
2019-01-16T22:43:25.893Z,15.65
2019-01-16T22:46:15.250Z,15.83
2019-01-16T22:49:05.532Z,15.80
2019-01-16T22:52:01.118Z,17.20
2019-01-16T22:54:48.458Z,16.77
2019-01-16T22:57:37.861Z,16.85
2019-01-16T23:00:42.433Z,16.42
2019-01-16T23:03:30.682Z,15.20
2019-01-16T23:06:20.081Z,16.00
2019-01-16T23:09:00.091Z,15.60
2019-01-16T23:11:48.389Z,15.93
2019-01-16T23:14:33.206Z,16.10
2019-01-16T23:17:14.327Z,14.50
2019-01-16T23:20:02.144Z,16.32
2019-01-16T23:22:48.040Z,15.25
2019-01-16T23:25:46.541Z,15.45
2019-01-16T23:28:34.998Z,15.78
2019-01-16T23:31:23.221Z,14.45
2019-01-16T23:34:15.425Z,14.98
2019-01-16T23:37:01.530Z,16.97
2019-01-16T23:39:54.075Z,14.80
2019-01-16T23:42:58.650Z,14.70
2019-01-16T23:45:50.987Z,14.90
2019-01-16T23:48:43.177Z,15.13
2019-01-16T23:51:32.682Z,14.45
2019-01-16T23:54:24.877Z,15.65
2019-01-16T23:57:12.541Z,15.43
